Time;durP1;ratioP1;P1;durP2;ratioP2;P2;SDS_P1;SDS_P2;PMS_P1;PMS_P2;Temp;Humidity;BMP_temperature;BMP_pressure;BME280_temperature;BME280_humidity;BME280_pressure;Samples;Min_cycle;Max_cycle;Signal;HPM_P1;HPM_P2
2023/03/26 06:15:18;;;;;;;4.20;0.67;;;8.90;99.90;;;;;;4929562;29;20252;-68
2023/03/26 06:17:46;;;;;;;5.30;0.87;;;8.90;99.90;;;;;;4932530;29;20563;-70
2023/03/26 06:20:14;;;;;;;4.00;1.40;;;8.80;99.90;;;;;;4930543;29;20220;-69
2023/03/26 06:22:41;;;;;;;2.40;0.77;;;8.70;99.90;;;;;;4924185;29;20223;-69
2023/03/26 06:25:08;;;;;;;1.90;0.60;;;8.40;99.90;;;;;;4930152;29;20209;-70
2023/03/26 06:27:35;;;;;;;3.77;0.60;;;8.30;99.90;;;;;;4924528;29;20206;-70
2023/03/26 06:30:01;;;;;;;5.87;1.00;;;8.30;99.90;;;;;;4933880;29;20235;-69
2023/03/26 06:32:30;;;;;;;2.83;1.23;;;8.20;99.90;;;;;;4928624;29;20212;-69
2023/03/26 06:34:56;;;;;;;4.20;1.20;;;8.10;99.90;;;;;;4925928;29;20402;-70
2023/03/26 06:37:23;;;;;;;2.40;1.30;;;8.10;99.90;;;;;;4926561;29;20217;-71
2023/03/26 06:39:50;;;;;;;7.33;0.87;;;8.10;99.90;;;;;;4925223;29;20200;-69
2023/03/26 06:42:17;;;;;;;4.67;1.17;;;8.10;99.90;;;;;;4924454;29;20564;-69
2023/03/26 06:44:43;;;;;;;5.03;0.80;;;8.10;99.90;;;;;;4936207;29;20208;-70
2023/03/26 06:47:10;;;;;;;3.33;0.50;;;8.20;99.90;;;;;;4930239;29;20240;-69
2023/03/26 06:49:40;;;;;;;6.03;1.00;;;8.30;99.90;;;;;;4936032;29;20220;-69
2023/03/26 06:52:07;;;;;;;4.07;0.60;;;8.10;99.90;;;;;;4934141;29;20684;-69
2023/03/26 06:54:34;;;;;;;6.80;1.60;;;8.10;99.90;;;;;;4934743;29;20205;-69
2023/03/26 06:57:01;;;;;;;2.60;0.70;;;8.10;99.90;;;;;;4936647;29;20755;-69
2023/03/26 06:59:27;;;;;;;1.73;1.07;;;8.00;99.90;;;;;;4932674;29;20210;-69
2023/03/26 07:01:54;;;;;;;2.00;0.60;;;8.00;99.90;;;;;;4926915;29;20232;-69
2023/03/26 07:04:21;;;;;;;3.43;0.70;;;8.10;99.90;;;;;;4930445;29;20210;-71
2023/03/26 07:06:49;;;;;;;2.90;0.73;;;7.90;99.90;;;;;;4926725;29;20235;-69
2023/03/26 07:09:16;;;;;;;1.20;0.40;;;7.80;99.90;;;;;;4931269;29;20301;-71
2023/03/26 07:11:43;;;;;;;2.47;0.50;;;7.70;99.90;;;;;;4931841;29;20225;-69
2023/03/26 07:14:10;;;;;;;4.07;0.70;;;7.70;99.90;;;;;;4930829;29;20578;-69
2023/03/26 07:16:36;;;;;;;4.93;0.67;;;7.60;99.90;;;;;;4929924;29;20274;-69
2023/03/26 07:19:03;;;;;;;1.63;0.50;;;7.70;99.90;;;;;;4931542;29;20216;-70
2023/03/26 07:21:31;;;;;;;3.63;0.60;;;7.60;99.90;;;;;;4928762;29;20229;-69
2023/03/26 07:23:59;;;;;;;5.63;0.83;;;7.50;99.90;;;;;;4937132;29;20205;-69
2023/03/26 07:26:33;;;;;;;2.40;0.50;;;7.50;99.90;;;;;;4937148;29;20771;-69
2023/03/26 07:29:06;;;;;;;4.67;0.60;;;7.40;99.90;;;;;;4937350;29;20205;-69
2023/03/26 07:31:42;;;;;;;0.70;0.30;;;7.40;99.90;;;;;;4937620;29;20264;-70
2023/03/26 07:34:17;;;;;;;1.63;0.40;;;7.30;99.90;;;;;;4937046;29;20209;-69
2023/03/26 07:36:49;;;;;;;1.03;0.30;;;7.20;99.90;;;;;;4937332;29;20209;-69
2023/03/26 07:39:33;;;;;;;3.30;1.20;;;7.20;99.90;;;;;;4937490;29;20209;-69
2023/03/26 07:42:05;;;;;;;1.33;0.60;;;7.30;99.90;;;;;;4936949;29;20228;-69
2023/03/26 07:44:43;;;;;;;0.67;0.30;;;7.30;99.90;;;;;;4936837;29;20209;-69
2023/03/26 07:47:24;;;;;;;1.63;0.70;;;7.30;99.90;;;;;;4936397;29;20236;-69
2023/03/26 07:49:54;;;;;;;0.80;0.40;;;7.30;99.90;;;;;;4936949;29;20220;-69
2023/03/26 07:52:21;;;;;;;2.33;0.50;;;7.20;99.90;;;;;;4937044;29;20209;-69
2023/03/26 07:54:50;;;;;;;2.17;0.40;;;7.10;99.90;;;;;;4936439;29;20217;-69
2023/03/26 07:57:25;;;;;;;1.33;0.40;;;7.00;99.90;;;;;;4936598;29;20273;-69
2023/03/26 07:59:57;;;;;;;0.40;0.30;;;7.10;99.90;;;;;;4931755;29;20206;-70
2023/03/26 08:02:42;;;;;;;3.00;0.60;;;7.20;99.90;;;;;;4925841;29;20209;-69
2023/03/26 08:05:18;;;;;;;0.83;0.23;;;7.20;99.90;;;;;;4925028;29;20296;-68
2023/03/26 08:07:57;;;;;;;1.00;0.50;;;7.30;99.90;;;;;;4936304;29;20236;-69
2023/03/26 08:10:29;;;;;;;0.77;0.40;;;7.20;99.90;;;;;;4936632;29;20225;-69
2023/03/26 08:13:04;;;;;;;0.90;0.30;;;7.20;99.90;;;;;;4935778;29;20663;-69
2023/03/26 08:15:37;;;;;;;1.47;0.60;;;7.20;99.90;;;;;;4936562;29;20299;-70
2023/03/26 08:18:17;;;;;;;1.53;0.60;;;7.20;99.90;;;;;;4936805;29;20217;-70
2023/03/26 08:20:49;;;;;;;2.43;0.90;;;7.20;99.90;;;;;;4936632;29;20228;-70
2023/03/26 08:23:22;;;;;;;0.40;0.20;;;7.10;99.90;;;;;;4936718;29;20213;-70
2023/03/26 08:26:01;;;;;;;0.87;0.50;;;7.20;99.90;;;;;;4936562;29;20660;-70
2023/03/26 08:28:47;;;;;;;1.57;0.50;;;7.10;99.90;;;;;;4936520;29;20587;-70
2023/03/26 08:31:16;;;;;;;1.40;0.50;;;7.20;99.90;;;;;;4936648;29;20229;-70
2023/03/26 08:33:43;;;;;;;5.10;0.57;;;7.30;99.90;;;;;;4936661;29;20256;-70
2023/03/26 08:36:10;;;;;;;1.73;0.47;;;7.40;99.90;;;;;;4936198;29;20213;-70
2023/03/26 08:38:37;;;;;;;2.20;0.60;;;7.40;99.90;;;;;;4936565;29;20205;-70
2023/03/26 08:42:03;;;;;;;3.10;0.90;;;7.40;99.90;;;;;;4936506;29;20236;-70
2023/03/26 08:45:01;;;;;;;1.97;0.80;;;7.40;99.90;;;;;;4936266;29;20213;-70
2023/03/26 08:47:55;;;;;;;3.13;0.73;;;7.40;99.90;;;;;;4936111;29;20233;-70
2023/03/26 08:50:46;;;;;;;4.03;0.80;;;7.50;99.90;;;;;;4936232;29;20633;-70
2023/03/26 08:53:45;;;;;;;3.20;0.70;;;7.50;99.90;;;;;;4936507;29;20690;-70
2023/03/26 08:56:23;;;;;;;1.73;0.70;;;7.40;99.90;;;;;;4926000;29;20303;-70
2023/03/26 08:59:17;;;;;;;3.63;0.63;;;7.40;99.90;;;;;;4935887;29;20691;-70
2023/03/26 09:02:29;;;;;;;1.40;0.50;;;7.40;99.90;;;;;;4935820;29;20239;-70
2023/03/26 09:05:34;;;;;;;6.83;2.10;;;7.50;99.90;;;;;;4919462;29;20212;-70
2023/03/26 09:08:29;;;;;;;3.70;0.90;;;7.60;99.90;;;;;;4936053;29;20326;-70
2023/03/26 09:11:18;;;;;;;3.90;1.23;;;7.50;99.90;;;;;;4936037;29;20232;-70
2023/03/26 09:14:11;;;;;;;3.90;0.70;;;7.50;99.90;;;;;;4936033;29;20667;-70
2023/03/26 09:17:28;;;;;;;4.37;0.90;;;7.50;99.90;;;;;;4936244;29;20211;-70
2023/03/26 09:20:29;;;;;;;4.03;1.00;;;7.50;99.90;;;;;;4935786;29;20209;-69
2023/03/26 09:23:16;;;;;;;1.90;1.17;;;7.60;99.90;;;;;;4894690;29;20825;-70
2023/03/26 09:26:24;;;;;;;1.90;0.50;;;7.80;99.90;;;;;;4931514;29;20209;-70
2023/03/26 09:29:22;;;;;;;2.83;0.53;;;7.60;99.90;;;;;;4896038;29;20578;-70
2023/03/26 09:32:21;;;;;;;1.07;0.50;;;7.60;99.90;;;;;;4935948;29;20232;-70
2023/03/26 09:35:21;;;;;;;3.03;0.80;;;7.70;99.90;;;;;;4935871;29;20208;-70
2023/03/26 09:37:57;;;;;;;3.83;1.00;;;7.60;99.90;;;;;;4935635;29;20215;-70
2023/03/26 09:40:35;;;;;;;5.13;1.10;;;7.50;99.90;;;;;;4935721;29;20224;-70
2023/03/26 09:43:23;;;;;;;0.40;0.30;;;7.60;99.90;;;;;;4935656;29;20235;-70
2023/03/26 09:46:06;;;;;;;1.07;0.60;;;7.80;99.90;;;;;;4935571;29;20221;-71
2023/03/26 09:48:48;;;;;;;1.37;0.63;;;7.80;99.90;;;;;;4935788;29;20213;-70
2023/03/26 09:51:39;;;;;;;1.67;0.50;;;8.00;99.90;;;;;;4935794;29;20232;-70
2023/03/26 09:54:28;;;;;;;6.40;0.77;;;7.90;99.90;;;;;;4935637;29;20216;-70
2023/03/26 09:57:05;;;;;;;2.77;0.60;;;7.70;99.90;;;;;;4935732;29;20216;-70
2023/03/26 09:59:53;;;;;;;0.93;0.70;;;7.80;99.90;;;;;;4935799;29;20209;-70
2023/03/26 10:02:42;;;;;;;1.73;0.60;;;7.70;99.90;;;;;;4935733;29;20212;-70
2023/03/26 10:05:26;;;;;;;4.67;0.77;;;7.70;99.90;;;;;;4935725;29;20244;-71
2023/03/26 10:08:06;;;;;;;1.60;0.50;;;7.60;99.90;;;;;;4935587;29;20327;-70
2023/03/26 10:10:40;;;;;;;3.27;0.90;;;7.70;99.90;;;;;;4935192;29;20711;-70
2023/03/26 10:13:21;;;;;;;1.03;0.53;;;7.70;99.90;;;;;;4935596;29;20213;-70
2023/03/26 10:16:00;;;;;;;2.07;0.50;;;7.70;99.90;;;;;;4935518;29;20205;-70
2023/03/26 10:18:40;;;;;;;2.70;0.67;;;7.80;99.90;;;;;;4935312;29;20268;-71
2023/03/26 10:21:17;;;;;;;1.70;0.57;;;7.90;99.90;;;;;;4935258;29;20232;-70
2023/03/26 10:24:10;;;;;;;2.03;0.60;;;8.10;99.90;;;;;;4935065;29;20568;-70
2023/03/26 10:27:03;;;;;;;1.63;0.50;;;8.20;99.90;;;;;;4935170;29;20244;-70
2023/03/26 10:29:51;;;;;;;2.03;0.90;;;8.30;99.90;;;;;;4935122;29;20242;-70
2023/03/26 10:32:29;;;;;;;2.23;1.47;;;8.20;99.90;;;;;;4933738;29;20209;-70
2023/03/26 10:35:15;;;;;;;2.23;0.90;;;8.20;99.90;;;;;;4935885;29;20205;-70
2023/03/26 10:37:55;;;;;;;1.87;1.20;;;8.40;99.90;;;;;;4938785;29;20217;-70
2023/03/26 10:40:28;;;;;;;3.13;0.60;;;8.20;99.90;;;;;;4938752;29;20232;-71
2023/03/26 10:43:43;;;;;;;1.50;0.60;;;8.10;99.90;;;;;;4938754;29;20209;-70
2023/03/26 10:46:29;;;;;;;1.17;0.53;;;8.10;99.90;;;;;;4938378;29;20209;-70
2023/03/26 10:49:20;;;;;;;0.70;0.60;;;8.10;99.90;;;;;;4938819;29;20276;-70
2023/03/26 10:51:52;;;;;;;0.90;0.50;;;8.10;99.90;;;;;;4938310;29;20233;-70
2023/03/26 10:54:29;;;;;;;1.63;0.80;;;8.40;99.90;;;;;;4938287;29;20679;-71
2023/03/26 10:56:57;;;;;;;1.07;0.60;;;8.30;99.90;;;;;;4938568;29;20726;-70
2023/03/26 10:59:26;;;;;;;1.00;0.80;;;8.40;99.90;;;;;;4938234;29;20213;-70
2023/03/26 11:02:04;;;;;;;2.50;1.20;;;8.50;99.90;;;;;;4938158;29;20233;-70
2023/03/26 11:04:43;;;;;;;2.17;1.30;;;8.70;99.90;;;;;;4938202;29;20283;-70
2023/03/26 11:07:20;;;;;;;2.37;1.20;;;8.70;99.90;;;;;;4937990;29;20236;-70
2023/03/26 11:09:53;;;;;;;1.83;0.90;;;8.80;99.90;;;;;;4937947;29;20209;-70
2023/03/26 11:12:28;;;;;;;3.03;1.13;;;8.80;99.90;;;;;;4938165;29;20209;-70
2023/03/26 11:15:07;;;;;;;2.37;1.33;;;8.80;99.90;;;;;;4937741;29;20344;-70
2023/03/26 11:17:43;;;;;;;4.87;1.47;;;8.60;99.90;;;;;;4938230;29;20213;-71
2023/03/26 11:20:15;;;;;;;0.90;0.70;;;8.60;99.90;;;;;;4938050;29;20232;-70
2023/03/26 11:22:55;;;;;;;1.07;0.80;;;8.70;99.90;;;;;;4937977;29;20211;-70
2023/03/26 11:25:32;;;;;;;3.13;0.80;;;8.70;99.90;;;;;;4937939;29;20205;-70
2023/03/26 11:28:11;;;;;;;5.40;1.60;;;8.60;99.90;;;;;;4938016;29;20236;-71
2023/03/26 11:30:44;;;;;;;5.60;1.53;;;8.50;99.90;;;;;;4937795;29;20231;-70
2023/03/26 11:33:15;;;;;;;2.40;1.17;;;8.60;99.90;;;;;;4937667;29;20209;-70
2023/03/26 11:35:46;;;;;;;3.50;2.23;;;8.70;99.90;;;;;;4937787;29;20668;-70
2023/03/26 11:38:21;;;;;;;2.53;1.00;;;8.70;99.90;;;;;;4937926;29;20215;-70
2023/03/26 11:40:52;;;;;;;2.57;1.07;;;8.60;99.90;;;;;;4937657;29;20228;-70
2023/03/26 11:43:25;;;;;;;0.80;0.63;;;8.70;99.90;;;;;;4937550;29;20227;-70
2023/03/26 11:45:52;;;;;;;1.37;0.73;;;8.70;99.90;;;;;;4937216;29;20300;-71
2023/03/26 11:48:26;;;;;;;2.23;0.80;;;8.80;99.90;;;;;;4937471;29;20702;-70
2023/03/26 11:50:57;;;;;;;1.80;0.90;;;8.90;99.90;;;;;;4937640;29;20240;-70
2023/03/26 11:53:29;;;;;;;3.20;0.63;;;8.90;99.90;;;;;;4937582;29;20212;-70
2023/03/26 11:56:01;;;;;;;1.13;0.70;;;8.90;99.90;;;;;;4937476;29;20232;-70
2023/03/26 11:58:33;;;;;;;1.70;0.93;;;9.00;99.90;;;;;;4937262;29;20263;-70
2023/03/26 12:01:04;;;;;;;1.70;0.80;;;9.10;99.90;;;;;;4937113;29;20228;-70
2023/03/26 12:03:31;;;;;;;1.57;1.00;;;9.10;99.90;;;;;;4937199;29;20719;-70
2023/03/26 12:06:02;;;;;;;1.10;0.73;;;8.80;99.90;;;;;;4936988;29;20216;-70
2023/03/26 12:08:34;;;;;;;1.47;0.80;;;9.00;99.90;;;;;;4936945;29;20236;-70
2023/03/26 12:11:08;;;;;;;2.70;1.17;;;9.20;99.90;;;;;;4937338;29;20228;-71
2023/03/26 12:13:40;;;;;;;1.07;0.77;;;9.00;99.90;;;;;;4936764;29;20224;-70
2023/03/26 12:16:14;;;;;;;3.87;0.77;;;9.20;99.90;;;;;;4936784;29;20228;-71
2023/03/26 12:18:42;;;;;;;1.03;0.60;;;9.10;99.90;;;;;;4936770;29;20209;-70
2023/03/26 12:21:11;;;;;;;3.90;1.20;;;9.20;99.90;;;;;;4936568;29;20233;-70
2023/03/26 12:23:45;;;;;;;1.03;0.80;;;9.20;99.90;;;;;;4936680;29;20672;-70
2023/03/26 12:26:16;;;;;;;3.30;1.00;;;9.10;99.90;;;;;;4936677;29;20656;-70
2023/03/26 12:28:47;;;;;;;1.00;0.90;;;9.10;99.90;;;;;;4936810;29;20247;-70
2023/03/26 12:31:17;;;;;;;1.13;0.97;;;9.10;99.90;;;;;;4936303;29;20238;-70
2023/03/26 12:33:44;;;;;;;1.60;0.90;;;9.10;99.90;;;;;;4936649;29;20212;-70
2023/03/26 12:36:22;;;;;;;3.70;1.30;;;9.20;99.90;;;;;;4936436;29;20264;-70
2023/03/26 12:38:50;;;;;;;3.03;1.40;;;9.40;99.90;;;;;;4936286;29;20208;-70
2023/03/26 12:41:18;;;;;;;2.00;1.20;;;9.60;99.90;;;;;;4936614;29;20239;-70
2023/03/26 12:43:47;;;;;;;2.30;1.30;;;9.70;99.90;;;;;;4936266;29;20690;-70
2023/03/26 12:46:24;;;;;;;1.73;1.10;;;9.70;99.90;;;;;;4936263;29;20213;-70
2023/03/26 12:48:52;;;;;;;2.70;1.40;;;9.80;99.90;;;;;;4936346;29;20584;-70
2023/03/26 12:51:30;;;;;;;3.17;1.40;;;9.80;99.90;;;;;;4935983;29;20225;-70
2023/03/26 12:54:14;;;;;;;5.77;1.40;;;9.80;99.90;;;;;;4936200;29;20204;-70
2023/03/26 12:56:48;;;;;;;1.40;1.23;;;9.70;99.90;;;;;;4936270;29;20215;-70
2023/03/26 12:59:31;;;;;;;2.03;1.27;;;9.60;99.90;;;;;;4935510;29;20226;-70
2023/03/26 13:02:08;;;;;;;1.87;0.93;;;9.50;99.90;;;;;;4936004;29;20236;-70
2023/03/26 13:04:54;;;;;;;2.13;0.77;;;9.50;99.90;;;;;;4936146;29;20236;-70
2023/03/26 13:07:27;;;;;;;1.77;0.93;;;9.40;99.90;;;;;;4936360;29;20255;-70
2023/03/26 13:10:23;;;;;;;2.10;0.63;;;9.40;99.90;;;;;;4935925;29;20213;-70
2023/03/26 13:13:10;;;;;;;1.30;0.80;;;9.30;99.90;;;;;;4936239;29;20259;-70
2023/03/26 13:15:41;;;;;;;2.53;1.20;;;9.20;99.90;;;;;;4935870;29;20205;-70
2023/03/26 13:18:20;;;;;;;2.67;0.90;;;9.30;99.90;;;;;;4935771;29;20213;-70
2023/03/26 13:20:57;;;;;;;4.27;0.70;;;9.40;99.90;;;;;;4936022;29;20288;-69
2023/03/26 13:23:35;;;;;;;0.90;0.50;;;9.40;99.90;;;;;;4936085;29;20209;-69
2023/03/26 13:26:12;;;;;;;1.67;0.80;;;9.40;99.90;;;;;;4935945;29;20204;-70
2023/03/26 13:28:49;;;;;;;0.80;0.50;;;9.40;99.90;;;;;;4935670;29;20236;-70
2023/03/26 13:31:21;;;;;;;1.27;0.90;;;9.40;99.90;;;;;;4935878;29;20228;-70
2023/03/26 13:33:57;;;;;;;1.87;0.77;;;9.40;99.90;;;;;;4935904;29;20209;-70
2023/03/26 13:36:35;;;;;;;2.60;0.40;;;9.40;99.90;;;;;;4935727;29;20209;-69
2023/03/26 13:39:12;;;;;;;0.77;0.43;;;9.50;99.90;;;;;;4935750;29;20272;-70
2023/03/26 13:41:53;;;;;;;0.93;0.80;;;9.60;99.90;;;;;;4935784;29;20235;-70
2023/03/26 13:44:31;;;;;;;1.33;0.57;;;9.60;99.90;;;;;;4935814;29;20213;-70
2023/03/26 13:47:02;;;;;;;0.93;0.83;;;9.60;99.90;;;;;;4935633;29;20205;-70
2023/03/26 13:49:36;;;;;;;2.13;0.90;;;9.60;99.90;;;;;;4935563;29;20695;-70
2023/03/26 13:52:08;;;;;;;1.20;0.80;;;9.60;99.90;;;;;;4935430;29;20229;-69
2023/03/26 13:54:39;;;;;;;2.43;1.13;;;9.60;99.90;;;;;;4935737;29;20211;-70
2023/03/26 13:57:14;;;;;;;1.37;0.57;;;9.50;99.90;;;;;;4935866;29;20213;-69
2023/03/26 13:59:46;;;;;;;3.17;0.60;;;9.40;99.90;;;;;;4935213;29;20212;-70
2023/03/26 14:02:20;;;;;;;2.57;1.13;;;9.40;99.90;;;;;;4935683;29;20670;-70
2023/03/26 14:04:49;;;;;;;3.03;0.87;;;9.40;99.90;;;;;;4936139;29;20209;-70
2023/03/26 14:07:23;;;;;;;2.30;0.90;;;9.40;99.90;;;;;;4935530;29;20261;-70
2023/03/26 14:09:55;;;;;;;1.53;0.73;;;9.40;99.90;;;;;;4936312;29;20213;-69
2023/03/26 14:12:43;;;;;;;4.20;0.90;;;9.40;99.90;;;;;;4939526;29;20410;-69
2023/03/26 14:15:15;;;;;;;1.30;0.90;;;9.40;99.90;;;;;;4939188;29;20219;-70
2023/03/26 14:17:48;;;;;;;1.10;0.80;;;9.40;99.90;;;;;;4939174;29;20580;-70
2023/03/26 14:20:55;;;;;;;1.57;0.80;;;9.30;99.90;;;;;;4939107;29;20229;-70
2023/03/26 14:23:57;;;;;;;3.00;1.17;;;9.30;99.90;;;;;;4939247;29;20212;-70
2023/03/26 14:26:44;;;;;;;1.47;0.90;;;9.40;99.90;;;;;;4932431;29;20212;-71
2023/03/26 14:29:31;;;;;;;1.87;1.30;;;9.40;99.90;;;;;;4938989;29;20240;-70
2023/03/26 14:32:16;;;;;;;1.63;1.30;;;9.30;99.90;;;;;;4938626;29;20233;-70
2023/03/26 14:34:56;;;;;;;1.87;1.27;;;9.40;99.90;;;;;;4938486;29;20676;-70
2023/03/26 14:37:47;;;;;;;2.23;1.50;;;9.50;99.90;;;;;;4938505;29;20623;-70
2023/03/26 14:40:29;;;;;;;3.23;1.60;;;9.50;99.90;;;;;;4938821;29;20250;-70
2023/03/26 14:43:13;;;;;;;2.37;1.53;;;9.60;99.90;;;;;;4938841;29;20205;-70
2023/03/26 14:46:04;;;;;;;1.73;1.10;;;9.60;99.90;;;;;;4938536;29;20216;-70
2023/03/26 14:49:00;;;;;;;1.80;1.20;;;9.70;99.90;;;;;;4938677;29;20240;-70
2023/03/26 14:51:39;;;;;;;3.47;1.33;;;9.80;99.90;;;;;;4938610;29;20240;-70
2023/03/26 14:54:12;;;;;;;2.67;1.43;;;9.80;99.90;;;;;;4938852;29;20205;-70
2023/03/26 14:57:31;;;;;;;1.80;1.10;;;9.80;99.90;;;;;;4938559;29;20247;-70
2023/03/26 15:00:42;;;;;;;3.60;2.10;;;9.70;99.90;;;;;;4938106;29;20209;-70
2023/03/26 15:04:03;;;;;;;7.17;2.97;;;9.70;99.90;;;;;;4938487;29;20215;-70
2023/03/26 15:07:11;;;;;;;9.50;3.70;;;9.80;99.90;;;;;;4937898;29;20201;-70
2023/03/26 15:10:15;;;;;;;3.60;1.30;;;9.70;99.90;;;;;;4938070;29;20596;-70
2023/03/26 15:13:00;;;;;;;2.23;1.40;;;9.70;99.90;;;;;;4937768;29;20208;-70
2023/03/26 15:16:03;;;;;;;2.60;1.40;;;9.70;99.90;;;;;;4938074;29;20227;-70
2023/03/26 15:19:00;;;;;;;2.80;2.00;;;9.70;99.90;;;;;;4937897;29;20222;-70
2023/03/26 15:22:03;;;;;;;1.70;1.17;;;9.90;99.90;;;;;;4937532;29;20254;-70
2023/03/26 15:25:09;;;;;;;2.63;1.23;;;10.00;99.90;;;;;;4937735;29;20243;-69
2023/03/26 15:27:57;;;;;;;2.87;1.10;;;10.00;99.90;;;;;;4937656;29;20217;-70
2023/03/26 15:31:02;;;;;;;2.93;1.17;;;10.00;99.90;;;;;;4937395;29;20280;-70
2023/03/26 15:34:08;;;;;;;3.70;1.00;;;10.00;99.90;;;;;;4928257;29;20215;-70
2023/03/26 15:37:14;;;;;;;3.93;1.43;;;10.00;99.90;;;;;;4917746;29;20209;-70
2023/03/26 15:40:11;;;;;;;1.80;1.47;;;9.90;99.90;;;;;;4937341;29;20216;-70
2023/03/26 15:42:50;;;;;;;1.63;1.40;;;9.90;99.90;;;;;;4937477;29;20209;-70
2023/03/26 15:45:29;;;;;;;2.80;1.47;;;9.80;99.90;;;;;;4937445;29;20204;-70
2023/03/26 15:48:20;;;;;;;2.50;1.50;;;9.90;99.90;;;;;;4937437;29;20209;-71
2023/03/26 15:50:54;;;;;;;2.17;1.30;;;9.90;99.90;;;;;;4937153;29;20236;-71
2023/03/26 15:53:37;;;;;;;2.10;1.30;;;9.90;99.90;;;;;;4937333;29;20654;-70
2023/03/26 15:56:17;;;;;;;2.57;1.30;;;9.90;99.90;;;;;;4937221;29;20304;-71
2023/03/26 15:58:54;;;;;;;3.37;1.60;;;9.90;99.90;;;;;;4937413;29;20208;-70
2023/03/26 16:01:32;;;;;;;2.37;1.40;;;9.80;99.90;;;;;;4937043;29;20235;-70
2023/03/26 16:04:13;;;;;;;3.37;1.50;;;9.80;99.90;;;;;;4937017;29;20212;-70
2023/03/26 16:06:49;;;;;;;2.83;1.60;;;9.60;99.90;;;;;;4936875;29;20291;-70
2023/03/26 16:09:39;;;;;;;6.87;2.03;;;9.60;99.90;;;;;;4937083;29;20236;-70
2023/03/26 16:12:28;;;;;;;2.80;1.80;;;9.50;99.90;;;;;;4937132;29;20660;-70
2023/03/26 16:15:30;;;;;;;9.23;2.87;;;9.30;99.90;;;;;;4936629;29;20300;-70
2023/03/26 16:18:29;;;;;;;5.83;2.67;;;9.20;99.90;;;;;;4936556;29;20739;-70
2023/03/26 16:21:04;;;;;;;5.87;2.33;;;9.00;99.90;;;;;;4928869;29;20232;-70
2023/03/26 16:23:36;;;;;;;4.93;2.70;;;8.90;99.90;;;;;;4936724;29;20215;-70
2023/03/26 16:26:16;;;;;;;6.60;3.13;;;8.80;99.90;;;;;;4936973;29;20346;-70
2023/03/26 16:29:12;;;;;;;12.37;2.40;;;8.80;99.90;;;;;;4936720;29;20493;-70
2023/03/26 16:31:59;;;;;;;11.93;2.20;;;8.80;99.90;;;;;;4936707;29;20235;-70
2023/03/26 16:34:30;;;;;;;11.17;2.23;;;8.70;99.90;;;;;;4936114;29;20212;-70
2023/03/26 16:36:59;;;;;;;10.43;2.40;;;8.70;99.90;;;;;;4936689;29;20216;-70
2023/03/26 16:39:39;;;;;;;8.83;2.30;;;8.60;99.90;;;;;;4936565;29;20209;-70
2023/03/26 16:42:30;;;;;;;7.00;2.17;;;8.70;99.90;;;;;;4936628;29;20220;-71
2023/03/26 16:45:14;;;;;;;4.60;2.03;;;8.70;99.90;;;;;;4936476;29;20213;-70
2023/03/26 16:47:51;;;;;;;4.83;2.20;;;8.60;99.90;;;;;;4936370;29;20553;-70
2023/03/26 16:50:24;;;;;;;6.33;2.10;;;8.60;99.90;;;;;;4936064;29;20692;-70
2023/03/26 16:53:01;;;;;;;7.93;2.17;;;8.60;99.90;;;;;;4936433;29;20212;-70
2023/03/26 16:55:39;;;;;;;5.20;2.40;;;8.60;99.90;;;;;;4936597;29;20247;-70
2023/03/26 16:58:15;;;;;;;4.90;2.33;;;8.60;99.90;;;;;;4936428;29;20330;-70
2023/03/26 17:00:52;;;;;;;6.83;1.90;;;8.70;99.90;;;;;;4936212;29;20235;-70
2023/03/26 17:03:41;;;;;;;9.67;2.10;;;8.80;99.90;;;;;;4936547;29;20212;-70
2023/03/26 17:06:26;;;;;;;5.20;1.93;;;8.90;99.90;;;;;;4935820;29;20695;-70
2023/03/26 17:09:01;;;;;;;7.23;2.40;;;9.00;99.90;;;;;;4935913;29;20236;-70
2023/03/26 17:11:39;;;;;;;8.43;2.73;;;9.00;99.90;;;;;;4935982;29;20236;-70
2023/03/26 17:14:24;;;;;;;8.63;2.27;;;9.00;99.90;;;;;;4936081;29;20706;-70
2023/03/26 17:17:21;;;;;;;6.97;2.40;;;8.90;99.90;;;;;;4935924;29;20212;-70
2023/03/26 17:19:57;;;;;;;6.60;2.10;;;8.90;99.90;;;;;;4935664;29;20205;-70
2023/03/26 17:22:35;;;;;;;12.67;2.00;;;8.90;99.90;;;;;;4935936;29;20230;-70
2023/03/26 17:25:11;;;;;;;13.20;2.13;;;8.80;99.90;;;;;;4935851;29;20722;-70
2023/03/26 17:27:48;;;;;;;13.43;2.40;;;8.70;99.90;;;;;;4935714;29;20213;-70
2023/03/26 17:30:51;;;;;;;15.17;2.20;;;8.70;99.90;;;;;;4935647;29;20703;-70
2023/03/26 17:33:28;;;;;;;6.33;1.70;;;8.80;99.90;;;;;;4936132;29;20299;-70
2023/03/26 17:36:27;;;;;;;5.63;2.17;;;8.80;99.90;;;;;;4935343;29;20663;-69
2023/03/26 17:39:00;;;;;;;6.40;1.83;;;8.80;99.90;;;;;;4935615;29;20216;-70
2023/03/26 17:41:51;;;;;;;5.23;1.30;;;8.80;99.90;;;;;;4935181;29;20229;-71
2023/03/26 17:44:39;;;;;;;6.73;1.43;;;8.70;99.90;;;;;;4936328;29;20639;-70
2023/03/26 17:47:14;;;;;;;10.37;1.20;;;8.60;99.90;;;;;;4938899;29;20215;-70
2023/03/26 17:49:43;;;;;;;5.77;0.97;;;8.50;99.90;;;;;;4939238;29;20235;-70
2023/03/26 17:52:20;;;;;;;3.07;1.13;;;8.40;99.90;;;;;;4939431;29;20537;-70
2023/03/26 17:54:50;;;;;;;6.83;1.37;;;8.50;99.90;;;;;;4939290;29;20205;-70
2023/03/26 17:57:22;;;;;;;5.43;1.07;;;8.50;99.90;;;;;;4939238;29;20211;-70
2023/03/26 17:59:52;;;;;;;4.93;1.10;;;8.50;99.90;;;;;;4939470;29;20236;-70
2023/03/26 18:02:27;;;;;;;6.43;1.33;;;8.50;99.90;;;;;;4939727;29;20212;-70
2023/03/26 18:04:55;;;;;;;2.83;0.90;;;8.50;99.90;;;;;;4939698;29;20652;-70
2023/03/26 18:08:16;;;;;;;5.13;1.30;;;8.50;99.90;;;;;;4939125;29;20208;-70
2023/03/26 18:11:15;;;;;;;6.43;1.00;;;8.50;99.90;;;;;;4939077;29;20236;-70
2023/03/26 18:14:07;;;;;;;1.90;1.00;;;8.50;99.90;;;;;;4939422;29;20221;-71
2023/03/26 18:16:39;;;;;;;3.37;1.20;;;8.50;99.90;;;;;;4938760;29;20215;-70
2023/03/26 18:19:17;;;;;;;4.13;1.23;;;8.60;99.90;;;;;;4938988;29;20702;-70
2023/03/26 18:21:45;;;;;;;4.40;1.20;;;8.60;99.90;;;;;;4938967;29;20782;-70
2023/03/26 18:24:18;;;;;;;7.23;1.73;;;8.70;99.90;;;;;;4938854;29;20216;-70
2023/03/26 18:26:48;;;;;;;4.83;1.57;;;8.60;99.90;;;;;;4939086;29;20220;-70
2023/03/26 18:29:22;;;;;;;3.20;1.20;;;8.70;99.90;;;;;;4938857;29;20232;-70
2023/03/26 18:31:54;;;;;;;10.63;1.60;;;8.70;99.90;;;;;;4938917;29;20228;-70
2023/03/26 18:34:23;;;;;;;4.90;1.10;;;8.80;99.90;;;;;;4938892;29;20208;-70
2023/03/26 18:37:00;;;;;;;3.93;1.20;;;8.80;99.90;;;;;;4938791;29;20209;-70
2023/03/26 18:39:29;;;;;;;4.63;1.00;;;8.70;99.90;;;;;;4938716;29;20630;-71
2023/03/26 18:41:55;;;;;;;9.83;1.17;;;8.40;99.90;;;;;;4938519;29;20779;-70
2023/03/26 18:44:23;;;;;;;2.97;1.07;;;8.30;99.90;;;;;;4938659;29;20660;-70
2023/03/26 18:46:53;;;;;;;3.77;0.80;;;8.20;99.90;;;;;;4938488;29;20216;-70
2023/03/26 18:49:22;;;;;;;6.73;1.07;;;8.10;99.90;;;;;;4938207;29;20237;-70
2023/03/26 18:51:49;;;;;;;3.10;0.80;;;7.90;99.90;;;;;;4938490;29;20225;-70
2023/03/26 18:54:20;;;;;;;4.53;1.50;;;7.90;99.90;;;;;;4938511;29;20204;-70
2023/03/26 18:56:48;;;;;;;3.87;0.80;;;7.90;99.90;;;;;;4937477;29;20211;-69
2023/03/26 18:59:27;;;;;;;4.53;1.10;;;7.90;99.90;;;;;;4927930;29;20557;-70
2023/03/26 19:01:55;;;;;;;6.40;1.07;;;7.90;99.90;;;;;;4921725;29;20225;-70
2023/03/26 19:04:24;;;;;;;7.03;1.20;;;7.90;99.90;;;;;;4926877;29;20239;-70
2023/03/26 19:06:53;;;;;;;2.93;0.93;;;7.90;99.90;;;;;;4926664;29;20215;-70
2023/03/26 19:09:21;;;;;;;4.80;1.10;;;8.00;99.90;;;;;;4925823;29;20268;-70
2023/03/26 19:11:54;;;;;;;3.10;0.73;;;7.90;99.90;;;;;;4934345;29;20221;-69
2023/03/26 19:14:21;;;;;;;11.47;1.23;;;7.90;99.90;;;;;;4926460;29;20221;-69
2023/03/26 19:16:54;;;;;;;5.20;1.03;;;7.90;99.90;;;;;;4928335;29;20227;-70
2023/03/26 19:19:25;;;;;;;6.97;1.13;;;8.00;99.90;;;;;;4928387;29;20233;-69
2023/03/26 19:21:51;;;;;;;4.97;0.77;;;8.00;99.90;;;;;;4932557;29;20808;-69
2023/03/26 19:24:21;;;;;;;5.23;0.90;;;7.80;99.90;;;;;;4934970;29;20209;-69
2023/03/26 19:26:50;;;;;;;1.30;0.50;;;7.80;99.90;;;;;;4931371;29;20206;-69
2023/03/26 19:29:22;;;;;;;4.40;0.80;;;7.70;99.90;;;;;;4932967;29;20233;-69
2023/03/26 19:31:52;;;;;;;1.90;0.60;;;7.70;99.90;;;;;;4931022;29;20231;-69
2023/03/26 19:34:26;;;;;;;2.00;0.70;;;7.60;99.90;;;;;;4924647;29;20211;-69
2023/03/26 19:36:59;;;;;;;5.37;0.70;;;7.60;99.90;;;;;;4925632;29;20688;-69
2023/03/26 19:39:39;;;;;;;3.80;0.83;;;7.60;99.90;;;;;;4936935;29;20209;-69
2023/03/26 19:42:12;;;;;;;3.30;0.90;;;7.50;99.90;;;;;;4931184;29;20273;-69
2023/03/26 19:44:40;;;;;;;3.00;0.67;;;7.60;99.90;;;;;;4935048;29;20209;-69
2023/03/26 19:47:13;;;;;;;7.57;1.10;;;7.60;99.90;;;;;;4929071;29;20241;-69
2023/03/26 19:49:51;;;;;;;3.83;0.70;;;7.50;99.90;;;;;;4931910;29;20240;-69
2023/03/26 19:52:22;;;;;;;3.50;0.97;;;7.50;99.90;;;;;;4930017;29;20206;-69
2023/03/26 19:55:00;;;;;;;3.30;0.90;;;7.50;99.90;;;;;;4930823;29;20206;-69
2023/03/26 19:57:29;;;;;;;5.13;0.80;;;7.60;99.90;;;;;;4925400;29;20292;-69
2023/03/26 19:59:57;;;;;;;7.03;0.90;;;7.50;99.90;;;;;;4929081;29;20214;-69
2023/03/26 20:02:24;;;;;;;6.60;1.20;;;7.60;99.90;;;;;;4936416;29;20213;-69
2023/03/26 20:04:51;;;;;;;3.50;1.00;;;7.60;99.90;;;;;;4928659;29;20634;-69
2023/03/26 20:07:20;;;;;;;1.83;0.60;;;7.40;99.90;;;;;;4919118;29;20221;-69
2023/03/26 20:09:48;;;;;;;5.97;1.20;;;7.40;99.90;;;;;;4925013;29;20595;-70